Main page
METAR-TAF:

METAR-TAF

Airports :

Warsaw Chopin Airport

Warsaw, Poland

latitude: 52-10N, longitude: 020-58E, elevation: 106 m

Current weather observation

The report was made 26 minutes ago, at 05:30 UTC
Wind 5 kt from the East
Temperature 18°C
Humidity 64%
Pressure 1026 hPa
Visibility 10 km or more
no clouds below 1500 m and no cumulonimbus

METAR: EPWA 250530Z 10005KT CAVOK 18/11 Q1026 NOSIG

Time: 07:56 (05:56 UTC)

Forecast

The report was made 26 minutes ago, at 05:30 UTC
Forecast valid from 25 at 06 UTC to 26 at 06 UTC
Wind 6 kt from the East
Visibility 10 km or more
no clouds below 1500 m and no cumulonimbus

TAF: EPWA 250530Z 2506/2606 09006KT CAVOK

Weather observations and forecasts of more than 4000 airports (METAR and TAF reports).

The available stations are represented by yellow and red dots on the map.

Hover mouse over dot to see the name of the station.

Then click to see weather observations and forecasts.

To change the map : click on the green buttons with a black cross to zoom in, on the green button with a dash to zoom out, or on the green arrows for adjacent maps.


METAR-TAF: